<?xml version="1.0" encoding="utf-8"?>
<gpx xmlns:xsi="http://www.w3.org/2001/XMLSchema-instance" xmlns:xsd="http://www.w3.org/2001/XMLSchema" version="1.1" creator="Shapelink.com" xmlns="http://www.topografix.com/GPX/1/1" xmlns:gpxtpx="http://www.garmin.com/xmlschemas/TrackPointExtension/v1">
  <metadata>
    <name>Rullskidor 10.09 km, 2018-08-02</name>
    <desc></desc>
    <author><name>Stefan Östlund</name></author> 
    <time>2018-08-02T17:29:19Z</time>
  </metadata>
  <trk>
    <name>Rullskidor 10.09 km, 2018-08-02</name>
    <trkseg>
      <trkpt lat="62.317633276314" lon="17.4390626278">
        <ele>17.6</ele>
        <time>2018-08-02T17:29:19Z</time>
      </trkpt>
      <trkpt lat="62.31758918752" lon="17.43914979956">
        <ele>17.2</ele>
        <time>2018-08-02T17:29:22Z</time>
      </trkpt>
      <trkpt lat="62.317527748193" lon="17.439265888875">
        <ele>17.2</ele>
        <time>2018-08-02T17:29:24Z</time>
      </trkpt>
      <trkpt lat="62.317400678589" lon="17.439423133319">
        <ele>17.4</ele>
        <time>2018-08-02T17:29:27Z</time>
      </trkpt>
      <trkpt lat="62.31731342301" lon="17.439544000317">
        <ele>17.2</ele>
        <time>2018-08-02T17:29:29Z</time>
      </trkpt>
      <trkpt lat="62.317143438078" lon="17.439845748717">
        <ele>17</ele>
        <time>2018-08-02T17:29:34Z</time>
      </trkpt>
      <trkpt lat="62.317072694842" lon="17.439960832204">
        <ele>15.8</ele>
        <time>2018-08-02T17:29:36Z</time>
      </trkpt>
      <trkpt lat="62.317001029597" lon="17.440082872668">
        <ele>14.4</ele>
        <time>2018-08-02T17:29:38Z</time>
      </trkpt>
      <trkpt lat="62.316966244712" lon="17.440153867361">
        <ele>14</ele>
        <time>2018-08-02T17:29:39Z</time>
      </trkpt>
      <trkpt lat="62.316837750185" lon="17.440436756486">
        <ele>14.6</ele>
        <time>2018-08-02T17:29:43Z</time>
      </trkpt>
      <trkpt lat="62.316566344263" lon="17.440877644426">
        <ele>15.2</ele>
        <time>2018-08-02T17:29:49Z</time>
      </trkpt>
      <trkpt lat="62.316523680392" lon="17.440945537816">
        <ele>14.8</ele>
        <time>2018-08-02T17:29:50Z</time>
      </trkpt>
      <trkpt lat="62.316364005197" lon="17.441220464136">
        <ele>14.6</ele>
        <time>2018-08-02T17:29:54Z</time>
      </trkpt>
      <trkpt lat="62.316266607519" lon="17.441461192304">
        <ele>15</ele>
        <time>2018-08-02T17:29:57Z</time>
      </trkpt>
      <trkpt lat="62.316151524032" lon="17.441741231583">
        <ele>14.2</ele>
        <time>2018-08-02T17:30:00Z</time>
      </trkpt>
      <trkpt lat="62.316087067221" lon="17.441975924783">
        <ele>12.4</ele>
        <time>2018-08-02T17:30:02Z</time>
      </trkpt>
      <trkpt lat="62.316054210173" lon="17.442088745157">
        <ele>11.2</ele>
        <time>2018-08-02T17:30:03Z</time>
      </trkpt>
      <trkpt lat="62.316019425288" lon="17.442212797277">
        <ele>9.6</ele>
        <time>2018-08-02T17:30:04Z</time>
      </trkpt>
      <trkpt lat="62.315982293471" lon="17.442331652619">
        <ele>8.6</ele>
        <time>2018-08-02T17:30:05Z</time>
      </trkpt>
      <trkpt lat="62.315906269638" lon="17.442543463232">
        <ele>7</ele>
        <time>2018-08-02T17:30:07Z</time>
      </trkpt>
      <trkpt lat="62.315786324649" lon="17.442801625752">
        <ele>6</ele>
        <time>2018-08-02T17:30:10Z</time>
      </trkpt>
      <trkpt lat="62.315638132657" lon="17.443059704453">
        <ele>5.4</ele>
        <time>2018-08-02T17:30:14Z</time>
      </trkpt>
      <trkpt lat="62.315529251776" lon="17.443230695213">
        <ele>6.4</ele>
        <time>2018-08-02T17:30:17Z</time>
      </trkpt>
      <trkpt lat="62.315451216287" lon="17.443364889432">
        <ele>7.4</ele>
        <time>2018-08-02T17:30:19Z</time>
      </trkpt>
      <trkpt lat="62.315274190559" lon="17.443752887583">
        <ele>7.8</ele>
        <time>2018-08-02T17:30:24Z</time>
      </trkpt>
      <trkpt lat="62.315189030455" lon="17.443917927194">
        <ele>7</ele>
        <time>2018-08-02T17:30:26Z</time>
      </trkpt>
      <trkpt lat="62.314989457416" lon="17.444147004521">
        <ele>6.6</ele>
        <time>2018-08-02T17:30:30Z</time>
      </trkpt>
      <trkpt lat="62.314940088025" lon="17.444187237641">
        <ele>6.2</ele>
        <time>2018-08-02T17:30:31Z</time>
      </trkpt>
      <trkpt lat="62.314663652963" lon="17.444384715205">
        <ele>6</ele>
        <time>2018-08-02T17:30:37Z</time>
      </trkpt>
      <trkpt lat="62.314405909538" lon="17.444565848064">
        <ele>7.4</ele>
        <time>2018-08-02T17:30:43Z</time>
      </trkpt>
      <trkpt lat="62.314126792268" lon="17.444769192958">
        <ele>7</ele>
        <time>2018-08-02T17:30:49Z</time>
      </trkpt>
      <trkpt lat="62.314002656329" lon="17.444872038871">
        <ele>6.2</ele>
        <time>2018-08-02T17:30:52Z</time>
      </trkpt>
      <trkpt lat="62.313920094614" lon="17.44492492866">
        <ele>5.6</ele>
        <time>2018-08-02T17:30:54Z</time>
      </trkpt>
      <trkpt lat="62.313672493288" lon="17.445039844509">
        <ele>6.4</ele>
        <time>2018-08-02T17:31:00Z</time>
      </trkpt>
      <trkpt lat="62.313443415961" lon="17.445123495871">
        <ele>6.6</ele>
        <time>2018-08-02T17:31:06Z</time>
      </trkpt>
      <trkpt lat="62.313219451593" lon="17.445228437259">
        <ele>6.6</ele>
        <time>2018-08-02T17:31:12Z</time>
      </trkpt>
      <trkpt lat="62.313085005917" lon="17.44535156737">
        <ele>6.8</ele>
        <time>2018-08-02T17:31:16Z</time>
      </trkpt>
      <trkpt lat="62.312970509163" lon="17.445440080234">
        <ele>6.4</ele>
        <time>2018-08-02T17:31:19Z</time>
      </trkpt>
      <trkpt lat="62.312899849746" lon="17.445488527616">
        <ele>6.4</ele>
        <time>2018-08-02T17:31:21Z</time>
      </trkpt>
      <trkpt lat="62.312655768818" lon="17.445670331027">
        <ele>5.6</ele>
        <time>2018-08-02T17:31:27Z</time>
      </trkpt>
      <trkpt lat="62.312612350576" lon="17.445704026265">
        <ele>4.8</ele>
        <time>2018-08-02T17:31:28Z</time>
      </trkpt>
      <trkpt lat="62.312572201275" lon="17.445714000726">
        <ele>4.2</ele>
        <time>2018-08-02T17:31:29Z</time>
      </trkpt>
      <trkpt lat="62.312527274291" lon="17.445734536381">
        <ele>3.6</ele>
        <time>2018-08-02T17:31:30Z</time>
      </trkpt>
      <trkpt lat="62.312304734846" lon="17.445924554054">
        <ele>3.8</ele>
        <time>2018-08-02T17:31:36Z</time>
      </trkpt>
      <trkpt lat="62.312186130961" lon="17.446083558697">
        <ele>4.8</ele>
        <time>2018-08-02T17:31:39Z</time>
      </trkpt>
      <trkpt lat="62.311902487465" lon="17.446332836403">
        <ele>5.2</ele>
        <time>2018-08-02T17:31:45Z</time>
      </trkpt>
      <trkpt lat="62.311756558586" lon="17.446416487765">
        <ele>3.6</ele>
        <time>2018-08-02T17:31:48Z</time>
      </trkpt>
      <trkpt lat="62.311584897274" lon="17.446531487433">
        <ele>3.6</ele>
        <time>2018-08-02T17:31:52Z</time>
      </trkpt>
      <trkpt lat="62.311407200994" lon="17.44668009852">
        <ele>3.6</ele>
        <time>2018-08-02T17:31:57Z</time>
      </trkpt>
      <trkpt lat="62.311232186922" lon="17.446875732066">
        <ele>4.2</ele>
        <time>2018-08-02T17:32:03Z</time>
      </trkpt>
      <trkpt lat="62.311137387633" lon="17.446959131971">
        <ele>4.8</ele>
        <time>2018-08-02T17:32:06Z</time>
      </trkpt>
      <trkpt lat="62.311008474011" lon="17.447144623418">
        <ele>4.8</ele>
        <time>2018-08-02T17:32:12Z</time>
      </trkpt>
      <trkpt lat="62.31089540218" lon="17.447299185654">
        <ele>6.2</ele>
        <time>2018-08-02T17:32:17Z</time>
      </trkpt>
      <trkpt lat="62.310810242076" lon="17.447456430098">
        <ele>7.2</ele>
        <time>2018-08-02T17:32:23Z</time>
      </trkpt>
      <trkpt lat="62.310790209335" lon="17.447480234694">
        <ele>7.4</ele>
        <time>2018-08-02T17:32:24Z</time>
      </trkpt>
      <trkpt lat="62.310732458044" lon="17.447559527468">
        <ele>8.6</ele>
        <time>2018-08-02T17:32:28Z</time>
      </trkpt>
      <trkpt lat="62.310612177779" lon="17.447676454973">
        <ele>9</ele>
        <time>2018-08-02T17:32:34Z</time>
      </trkpt>
      <trkpt lat="62.310537830326" lon="17.44774711439">
        <ele>9.6</ele>
        <time>2018-08-02T17:32:37Z</time>
      </trkpt>
      <trkpt lat="62.310410593084" lon="17.447886589206">
        <ele>9.8</ele>
        <time>2018-08-02T17:32:43Z</time>
      </trkpt>
      <trkpt lat="62.310296347787" lon="17.447990692404">
        <ele>10.6</ele>
        <time>2018-08-02T17:32:48Z</time>
      </trkpt>
      <trkpt lat="62.310167182708" lon="17.448145170821">
        <ele>11.2</ele>
        <time>2018-08-02T17:32:54Z</time>
      </trkpt>
      <trkpt lat="62.310059978207" lon="17.448247430001">
        <ele>11.8</ele>
        <time>2018-08-02T17:32:58Z</time>
      </trkpt>
      <trkpt lat="62.309969956601" lon="17.448349605362">
        <ele>12.8</ele>
        <time>2018-08-02T17:33:02Z</time>
      </trkpt>
      <trkpt lat="62.309904577781" lon="17.448470137084">
        <ele>13</ele>
        <time>2018-08-02T17:33:07Z</time>
      </trkpt>
      <trkpt lat="62.30987867771" lon="17.448547753478">
        <ele>13</ele>
        <time>2018-08-02T17:33:10Z</time>
      </trkpt>
      <trkpt lat="62.309793769063" lon="17.448685216638">
        <ele>13.8</ele>
        <time>2018-08-02T17:33:15Z</time>
      </trkpt>
      <trkpt lat="62.309660496853" lon="17.448915635069">
        <ele>14.2</ele>
        <time>2018-08-02T17:33:21Z</time>
      </trkpt>
      <trkpt lat="62.309486153333" lon="17.449217215831">
        <ele>13.6</ele>
        <time>2018-08-02T17:33:27Z</time>
      </trkpt>
      <trkpt lat="62.30928523919" lon="17.449534051651">
        <ele>13</ele>
        <time>2018-08-02T17:33:33Z</time>
      </trkpt>
      <trkpt lat="62.309254896712" lon="17.449588785458">
        <ele>12.8</ele>
        <time>2018-08-02T17:33:34Z</time>
      </trkpt>
      <trkpt lat="62.309109135471" lon="17.449896568826">
        <ele>13.4</ele>
        <time>2018-08-02T17:33:40Z</time>
      </trkpt>
      <trkpt lat="62.309021963711" lon="17.450192282258">
        <ele>13.2</ele>
        <time>2018-08-02T17:33:45Z</time>
      </trkpt>
      <trkpt lat="62.308952729217" lon="17.450498221608">
        <ele>13</ele>
        <time>2018-08-02T17:33:49Z</time>
      </trkpt>
      <trkpt lat="62.308903443645" lon="17.450756551766">
        <ele>11.2</ele>
        <time>2018-08-02T17:33:52Z</time>
      </trkpt>
      <trkpt lat="62.308861534145" lon="17.450965344895">
        <ele>9.8</ele>
        <time>2018-08-02T17:33:54Z</time>
      </trkpt>
      <trkpt lat="62.308813589677" lon="17.451196517697">
        <ele>8.6</ele>
        <time>2018-08-02T17:33:56Z</time>
      </trkpt>
      <trkpt lat="62.308765309933" lon="17.451449567258">
        <ele>7.4</ele>
        <time>2018-08-02T17:33:58Z</time>
      </trkpt>
      <trkpt lat="62.308710911402" lon="17.451713680927">
        <ele>5.8</ele>
        <time>2018-08-02T17:34:00Z</time>
      </trkpt>
      <trkpt lat="62.308649472075" lon="17.451985673582">
        <ele>4.6</ele>
        <time>2018-08-02T17:34:02Z</time>
      </trkpt>
      <trkpt lat="62.308573867337" lon="17.45223478365">
        <ele>3.4</ele>
        <time>2018-08-02T17:34:04Z</time>
      </trkpt>
      <trkpt lat="62.308429111924" lon="17.452589086563">
        <ele>2.8</ele>
        <time>2018-08-02T17:34:08Z</time>
      </trkpt>
      <trkpt lat="62.308374294298" lon="17.452773572182">
        <ele>3.6</ele>
        <time>2018-08-02T17:34:10Z</time>
      </trkpt>
      <trkpt lat="62.308313525523" lon="17.453433898264">
        <ele>2.6</ele>
        <time>2018-08-02T17:34:16Z</time>
      </trkpt>
      <trkpt lat="62.308308831659" lon="17.45355074195">
        <ele>2.2</ele>
        <time>2018-08-02T17:34:17Z</time>
      </trkpt>
      <trkpt lat="62.30830288051" lon="17.453843018803">
        <ele>2</ele>
        <time>2018-08-02T17:34:20Z</time>
      </trkpt>
      <trkpt lat="62.308281506665" lon="17.454026498594">
        <ele>2</ele>
        <time>2018-08-02T17:34:22Z</time>
      </trkpt>
      <trkpt lat="62.308198358217" lon="17.454442827567">
        <ele>2.8</ele>
        <time>2018-08-02T17:34:29Z</time>
      </trkpt>
      <trkpt lat="62.308203219719" lon="17.454449868363">
        <ele>3</ele>
        <time>2018-08-02T17:34:31Z</time>
      </trkpt>
      <trkpt lat="62.308220234976" lon="17.454369821218">
        <ele>3.2</ele>
        <time>2018-08-02T17:34:34Z</time>
      </trkpt>
      <trkpt lat="62.308228030143" lon="17.454323804587">
        <ele>3.4</ele>
        <time>2018-08-02T17:34:35Z</time>
      </trkpt>
      <trkpt lat="62.308263401761" lon="17.453891298547">
        <ele>3.6</ele>
        <time>2018-08-02T17:34:41Z</time>
      </trkpt>
      <trkpt lat="62.30829449861" lon="17.453473963746">
        <ele>4.4</ele>
        <time>2018-08-02T17:34:46Z</time>
      </trkpt>
      <trkpt lat="62.308336491929" lon="17.452993010324">
        <ele>4.2</ele>
        <time>2018-08-02T17:34:52Z</time>
      </trkpt>
      <trkpt lat="62.308362643457" lon="17.452715401796">
        <ele>5.6</ele>
        <time>2018-08-02T17:34:57Z</time>
      </trkpt>
      <trkpt lat="62.308446294819" lon="17.45240074527">
        <ele>6.2</ele>
        <time>2018-08-02T17:35:03Z</time>
      </trkpt>
      <trkpt lat="62.30859121787" lon="17.452037892819">
        <ele>6</ele>
        <time>2018-08-02T17:35:09Z</time>
      </trkpt>
      <trkpt lat="62.308697500362" lon="17.451678476947">
        <ele>6.4</ele>
        <time>2018-08-02T17:35:15Z</time>
      </trkpt>
      <trkpt lat="62.308719544759" lon="17.451569344609">
        <ele>6.8</ele>
        <time>2018-08-02T17:35:17Z</time>
      </trkpt>
      <trkpt lat="62.308783750113" lon="17.451316797962">
        <ele>8.2</ele>
        <time>2018-08-02T17:35:22Z</time>
      </trkpt>
      <trkpt lat="62.308820714292" lon="17.451178748069">
        <ele>9.2</ele>
        <time>2018-08-02T17:35:25Z</time>
      </trkpt>
      <trkpt lat="62.308878130307" lon="17.450952269131">
        <ele>9.8</ele>
        <time>2018-08-02T17:35:31Z</time>
      </trkpt>
      <trkpt lat="62.308893133908" lon="17.450797958352">
        <ele>10.2</ele>
        <time>2018-08-02T17:35:34Z</time>
      </trkpt>
      <trkpt lat="62.308928924621" lon="17.450586734472">
        <ele>11.2</ele>
        <time>2018-08-02T17:35:39Z</time>
      </trkpt>
      <trkpt lat="62.308976030899" lon="17.450354388204">
        <ele>13.2</ele>
        <time>2018-08-02T17:35:45Z</time>
      </trkpt>
      <trkpt lat="62.309034788018" lon="17.450103182661">
        <ele>13.6</ele>
        <time>2018-08-02T17:35:51Z</time>
      </trkpt>
      <trkpt lat="62.309108884014" lon="17.44979816532">
        <ele>13.6</ele>
        <time>2018-08-02T17:35:57Z</time>
      </trkpt>
      <trkpt lat="62.309222039664" lon="17.449483341156">
        <ele>13.8</ele>
        <time>2018-08-02T17:36:03Z</time>
      </trkpt>
      <trkpt lat="62.309293118176" lon="17.449336071173">
        <ele>14.2</ele>
        <time>2018-08-02T17:36:06Z</time>
      </trkpt>
      <trkpt lat="62.309463438384" lon="17.449044548691">
        <ele>14.4</ele>
        <time>2018-08-02T17:36:12Z</time>
      </trkpt>
      <trkpt lat="62.309601823553" lon="17.448789152198">
        <ele>14.4</ele>
        <time>2018-08-02T17:36:18Z</time>
      </trkpt>
      <trkpt lat="62.309756888703" lon="17.448597541964">
        <ele>15.2</ele>
        <time>2018-08-02T17:36:24Z</time>
      </trkpt>
      <trkpt lat="62.309943637435" lon="17.448375505433">
        <ele>15.4</ele>
        <time>2018-08-02T17:36:30Z</time>
      </trkpt>
      <trkpt lat="62.310101133336" lon="17.448174339833">
        <ele>13.8</ele>
        <time>2018-08-02T17:36:35Z</time>
      </trkpt>
      <trkpt lat="62.310174977875" lon="17.448045342392">
        <ele>12.8</ele>
        <time>2018-08-02T17:36:37Z</time>
      </trkpt>
      <trkpt lat="62.310210014217" lon="17.447973258052">
        <ele>12.2</ele>
        <time>2018-08-02T17:36:38Z</time>
      </trkpt>
      <trkpt lat="62.310245553473" lon="17.447893378545">
        <ele>11.6</ele>
        <time>2018-08-02T17:36:39Z</time>
      </trkpt>
      <trkpt lat="62.310387123764" lon="17.447704869614">
        <ele>10.2</ele>
        <time>2018-08-02T17:36:42Z</time>
      </trkpt>
      <trkpt lat="62.310678394789" lon="17.447414185322">
        <ele>9.2</ele>
        <time>2018-08-02T17:36:47Z</time>
      </trkpt>
      <trkpt lat="62.311108889173" lon="17.447011854122">
        <ele>8.6</ele>
        <time>2018-08-02T17:36:53Z</time>
      </trkpt>
      <trkpt lat="62.311446512105" lon="17.446634165708">
        <ele>7.8</ele>
        <time>2018-08-02T17:36:58Z</time>
      </trkpt>
      <trkpt lat="62.311580119591" lon="17.446504246258">
        <ele>6.4</ele>
        <time>2018-08-02T17:37:00Z</time>
      </trkpt>
      <trkpt lat="62.311646588058" lon="17.446443393664">
        <ele>5.2</ele>
        <time>2018-08-02T17:37:01Z</time>
      </trkpt>
      <trkpt lat="62.311710458136" lon="17.446383882174">
        <ele>4</ele>
        <time>2018-08-02T17:37:02Z</time>
      </trkpt>
      <trkpt lat="62.311831576591" lon="17.446266367936">
        <ele>3</ele>
        <time>2018-08-02T17:37:04Z</time>
      </trkpt>
      <trkpt lat="62.312025114662" lon="17.446096215366">
        <ele>2.8</ele>
        <time>2018-08-02T17:37:08Z</time>
      </trkpt>
      <trkpt lat="62.31223734437" lon="17.445904605132">
        <ele>4.4</ele>
        <time>2018-08-02T17:37:13Z</time>
      </trkpt>
      <trkpt lat="62.312297777869" lon="17.445824138892">
        <ele>5.4</ele>
        <time>2018-08-02T17:37:15Z</time>
      </trkpt>
      <trkpt lat="62.312500703668" lon="17.445664296059">
        <ele>6</ele>
        <time>2018-08-02T17:37:21Z</time>
      </trkpt>
      <trkpt lat="62.312655768818" lon="17.445580979973">
        <ele>6.8</ele>
        <time>2018-08-02T17:37:26Z</time>
      </trkpt>
      <trkpt lat="62.31284335574" lon="17.445389034463">
        <ele>7</ele>
        <time>2018-08-02T17:37:32Z</time>
      </trkpt>
      <trkpt lat="62.312982830556" lon="17.445251403665">
        <ele>7.8</ele>
        <time>2018-08-02T17:37:37Z</time>
      </trkpt>
      <trkpt lat="62.313185672536" lon="17.445130117572">
        <ele>7.8</ele>
        <time>2018-08-02T17:37:43Z</time>
      </trkpt>
      <trkpt lat="62.313400919728" lon="17.444987038539">
        <ele>7.6</ele>
        <time>2018-08-02T17:37:49Z</time>
      </trkpt>
      <trkpt lat="62.313615412549" lon="17.444906991394">
        <ele>7.8</ele>
        <time>2018-08-02T17:37:55Z</time>
      </trkpt>
      <trkpt lat="62.313832336121" lon="17.44479836197">
        <ele>7.6</ele>
        <time>2018-08-02T17:38:01Z</time>
      </trkpt>
      <trkpt lat="62.314075578859" lon="17.444661150267">
        <ele>7.6</ele>
        <time>2018-08-02T17:38:07Z</time>
      </trkpt>
      <trkpt lat="62.314309852964" lon="17.444477838114">
        <ele>7</ele>
        <time>2018-08-02T17:38:13Z</time>
      </trkpt>
      <trkpt lat="62.314531135124" lon="17.444313301417">
        <ele>7.2</ele>
        <time>2018-08-02T17:38:19Z</time>
      </trkpt>
      <trkpt lat="62.31476364903" lon="17.444168965099">
        <ele>7.2</ele>
        <time>2018-08-02T17:38:25Z</time>
      </trkpt>
      <trkpt lat="62.314974537634" lon="17.444010211913">
        <ele>7.6</ele>
        <time>2018-08-02T17:38:31Z</time>
      </trkpt>
      <trkpt lat="62.315173943035" lon="17.443824469009">
        <ele>8</ele>
        <time>2018-08-02T17:38:37Z</time>
      </trkpt>
      <trkpt lat="62.315336384257" lon="17.443564211014">
        <ele>8.8</ele>
        <time>2018-08-02T17:38:43Z</time>
      </trkpt>
      <trkpt lat="62.315485582077" lon="17.443319627172">
        <ele>9</ele>
        <time>2018-08-02T17:38:49Z</time>
      </trkpt>
      <trkpt lat="62.31563117568" lon="17.443074708054">
        <ele>9.4</ele>
        <time>2018-08-02T17:38:55Z</time>
      </trkpt>
      <trkpt lat="62.315785235002" lon="17.442779497536">
        <ele>9.6</ele>
        <time>2018-08-02T17:39:01Z</time>
      </trkpt>
      <trkpt lat="62.315856732609" lon="17.442639016892">
        <ele>10</ele>
        <time>2018-08-02T17:39:04Z</time>
      </trkpt>
      <trkpt lat="62.315990591552" lon="17.442330143877">
        <ele>10</ele>
        <time>2018-08-02T17:39:10Z</time>
      </trkpt>
      <trkpt lat="62.31608715104" lon="17.442036274463">
        <ele>10.6</ele>
        <time>2018-08-02T17:39:16Z</time>
      </trkpt>
      <trkpt lat="62.316127132703" lon="17.44182530204">
        <ele>11.2</ele>
        <time>2018-08-02T17:39:20Z</time>
      </trkpt>
      <trkpt lat="62.316192511523" lon="17.441627321562">
        <ele>12.2</ele>
        <time>2018-08-02T17:39:25Z</time>
      </trkpt>
      <trkpt lat="62.316279180369" lon="17.441424814858">
        <ele>12.6</ele>
        <time>2018-08-02T17:39:31Z</time>
      </trkpt>
      <trkpt lat="62.316331148149" lon="17.441308557905">
        <ele>13.2</ele>
        <time>2018-08-02T17:39:35Z</time>
      </trkpt>
      <trkpt lat="62.316435502804" lon="17.441125581028">
        <ele>14</ele>
        <time>2018-08-02T17:39:41Z</time>
      </trkpt>
      <trkpt lat="62.31647104206" lon="17.441041007657">
        <ele>14.2</ele>
        <time>2018-08-02T17:39:43Z</time>
      </trkpt>
      <trkpt lat="62.316596351465" lon="17.440826431017">
        <ele>15</ele>
        <time>2018-08-02T17:39:49Z</time>
      </trkpt>
      <trkpt lat="62.316661227371" lon="17.440736744687">
        <ele>15.2</ele>
        <time>2018-08-02T17:39:52Z</time>
      </trkpt>
      <trkpt lat="62.316813945589" lon="17.440524012065">
        <ele>15.6</ele>
        <time>2018-08-02T17:39:58Z</time>
      </trkpt>
      <trkpt lat="62.316927771791" lon="17.440283619173">
        <ele>15.8</ele>
        <time>2018-08-02T17:40:04Z</time>
      </trkpt>
      <trkpt lat="62.317054506119" lon="17.440028725594">
        <ele>16</ele>
        <time>2018-08-02T17:40:10Z</time>
      </trkpt>
      <trkpt lat="62.31711644836" lon="17.439909115881">
        <ele>16.4</ele>
        <time>2018-08-02T17:40:13Z</time>
      </trkpt>
      <trkpt lat="62.317274782451" lon="17.439641481814">
        <ele>16.6</ele>
        <time>2018-08-02T17:40:19Z</time>
      </trkpt>
      <trkpt lat="62.317406294462" lon="17.439439897119">
        <ele>17.2</ele>
        <time>2018-08-02T17:40:25Z</time>
      </trkpt>
      <trkpt lat="62.317474606947" lon="17.439356497214">
        <ele>17.4</ele>
        <time>2018-08-02T17:40:28Z</time>
      </trkpt>
      <trkpt lat="62.317609890813" lon="17.439178130382">
        <ele>17.8</ele>
        <time>2018-08-02T17:40:34Z</time>
      </trkpt>
      <trkpt lat="62.317716760038" lon="17.438995824057">
        <ele>18.4</ele>
        <time>2018-08-02T17:40:39Z</time>
      </trkpt>
      <trkpt lat="62.317858162691" lon="17.438813266275">
        <ele>19</ele>
        <time>2018-08-02T17:40:45Z</time>
      </trkpt>
      <trkpt lat="62.318064022155" lon="17.43858737407">
        <ele>19</ele>
        <time>2018-08-02T17:40:54Z</time>
      </trkpt>
      <trkpt lat="62.318202155867" lon="17.438471368574">
        <ele>19</ele>
        <time>2018-08-02T17:41:00Z</time>
      </trkpt>
      <trkpt lat="62.31836032232" lon="17.438381430787">
        <ele>19.4</ele>
        <time>2018-08-02T17:41:05Z</time>
      </trkpt>
      <trkpt lat="62.318593087683" lon="17.438229969854">
        <ele>19.4</ele>
        <time>2018-08-02T17:41:11Z</time>
      </trkpt>
      <trkpt lat="62.318708003532" lon="17.438124106457">
        <ele>19.4</ele>
        <time>2018-08-02T17:41:14Z</time>
      </trkpt>
      <trkpt lat="62.318943032008" lon="17.437902153745">
        <ele>18.8</ele>
        <time>2018-08-02T17:41:20Z</time>
      </trkpt>
      <trkpt lat="62.319027018646" lon="17.437789333371">
        <ele>18.4</ele>
        <time>2018-08-02T17:41:22Z</time>
      </trkpt>
      <trkpt lat="62.319225921133" lon="17.437496218328">
        <ele>18</ele>
        <time>2018-08-02T17:41:28Z</time>
      </trkpt>
      <trkpt lat="62.319449717863" lon="17.437311145976">
        <ele>17.6</ele>
        <time>2018-08-02T17:41:34Z</time>
      </trkpt>
      <trkpt lat="62.319564885169" lon="17.437266470449">
        <ele>17.4</ele>
        <time>2018-08-02T17:41:37Z</time>
      </trkpt>
      <trkpt lat="62.319816425988" lon="17.437137556827">
        <ele>17</ele>
        <time>2018-08-02T17:41:43Z</time>
      </trkpt>
      <trkpt lat="62.320106775004" lon="17.43705600094">
        <ele>16.8</ele>
        <time>2018-08-02T17:41:49Z</time>
      </trkpt>
      <trkpt lat="62.320202747759" lon="17.437014259078">
        <ele>16.6</ele>
        <time>2018-08-02T17:41:51Z</time>
      </trkpt>
      <trkpt lat="62.320459820632" lon="17.43697469651">
        <ele>16.6</ele>
        <time>2018-08-02T17:41:56Z</time>
      </trkpt>
      <trkpt lat="62.320654783626" lon="17.436855841168">
        <ele>16.4</ele>
        <time>2018-08-02T17:42:00Z</time>
      </trkpt>
      <trkpt lat="62.320907246454" lon="17.436706978624">
        <ele>15.8</ele>
        <time>2018-08-02T17:42:05Z</time>
      </trkpt>
      <trkpt lat="62.321222992627" lon="17.436591978956">
        <ele>15.8</ele>
        <time>2018-08-02T17:42:11Z</time>
      </trkpt>
      <trkpt lat="62.32142725953" lon="17.43658074721">
        <ele>15</ele>
        <time>2018-08-02T17:42:15Z</time>
      </trkpt>
      <trkpt lat="62.321474449627" lon="17.436585860169">
        <ele>14.6</ele>
        <time>2018-08-02T17:42:16Z</time>
      </trkpt>
      <trkpt lat="62.321568410726" lon="17.436516458037">
        <ele>13.6</ele>
        <time>2018-08-02T17:42:18Z</time>
      </trkpt>
      <trkpt lat="62.321675615227" lon="17.436498269314">
        <ele>12.6</ele>
        <time>2018-08-02T17:42:20Z</time>
      </trkpt>
      <trkpt lat="62.321907793857" lon="17.436481589333">
        <ele>11.2</ele>
        <time>2018-08-02T17:42:24Z</time>
      </trkpt>
      <trkpt lat="62.322214487578" lon="17.436365248561">
        <ele>10.2</ele>
        <time>2018-08-02T17:42:29Z</time>
      </trkpt>
      <trkpt lat="62.322276932733" lon="17.436321411224">
        <ele>10</ele>
        <time>2018-08-02T17:42:30Z</time>
      </trkpt>
      <trkpt lat="62.322399392292" lon="17.436236921672">
        <ele>9</ele>
        <time>2018-08-02T17:42:32Z</time>
      </trkpt>
      <trkpt lat="62.322460244886" lon="17.436189563937">
        <ele>8.2</ele>
        <time>2018-08-02T17:42:33Z</time>
      </trkpt>
      <trkpt lat="62.322516235978" lon="17.436146732428">
        <ele>7.8</ele>
        <time>2018-08-02T17:42:34Z</time>
      </trkpt>
      <trkpt lat="62.322734165378" lon="17.436003485757">
        <ele>7.4</ele>
        <time>2018-08-02T17:42:38Z</time>
      </trkpt>
      <trkpt lat="62.322878250239" lon="17.435893347591">
        <ele>8.8</ele>
        <time>2018-08-02T17:42:41Z</time>
      </trkpt>
      <trkpt lat="62.323016132494" lon="17.435753621318">
        <ele>9.8</ele>
        <time>2018-08-02T17:42:44Z</time>
      </trkpt>
      <trkpt lat="62.323253591721" lon="17.435544325275">
        <ele>9.8</ele>
        <time>2018-08-02T17:42:50Z</time>
      </trkpt>
      <trkpt lat="62.323456433701" lon="17.435326982608">
        <ele>10.2</ele>
        <time>2018-08-02T17:42:56Z</time>
      </trkpt>
      <trkpt lat="62.323519800865" lon="17.435126236103">
        <ele>10.8</ele>
        <time>2018-08-02T17:43:00Z</time>
      </trkpt>
      <trkpt lat="62.323546455307" lon="17.434803532953">
        <ele>12</ele>
        <time>2018-08-02T17:43:06Z</time>
      </trkpt>
      <trkpt lat="62.323568751161" lon="17.43448946316">
        <ele>12.4</ele>
        <time>2018-08-02T17:43:12Z</time>
      </trkpt>
      <trkpt lat="62.323575037586" lon="17.43439055674">
        <ele>13</ele>
        <time>2018-08-02T17:43:14Z</time>
      </trkpt>
      <trkpt lat="62.323585766418" lon="17.434219314523">
        <ele>14</ele>
        <time>2018-08-02T17:43:18Z</time>
      </trkpt>
      <trkpt lat="62.323615689801" lon="17.433973221939">
        <ele>15</ele>
        <time>2018-08-02T17:43:24Z</time>
      </trkpt>
      <trkpt lat="62.323620886579" lon="17.433933407914">
        <ele>15.2</ele>
        <time>2018-08-02T17:43:25Z</time>
      </trkpt>
      <trkpt lat="62.323655084731" lon="17.433628893487">
        <ele>16</ele>
        <time>2018-08-02T17:43:31Z</time>
      </trkpt>
      <trkpt lat="62.323695736946" lon="17.433260928077">
        <ele>16.2</ele>
        <time>2018-08-02T17:43:37Z</time>
      </trkpt>
      <trkpt lat="62.323700598448" lon="17.433192699411">
        <ele>16.4</ele>
        <time>2018-08-02T17:43:38Z</time>
      </trkpt>
      <trkpt lat="62.323749548744" lon="17.432846526941">
        <ele>17</ele>
        <time>2018-08-02T17:43:44Z</time>
      </trkpt>
      <trkpt lat="62.323771593141" lon="17.432746279417">
        <ele>17.4</ele>
        <time>2018-08-02T17:43:46Z</time>
      </trkpt>
      <trkpt lat="62.323843677481" lon="17.432485602327">
        <ele>18.2</ele>
        <time>2018-08-02T17:43:52Z</time>
      </trkpt>
      <trkpt lat="62.323977787881" lon="17.432291896618">
        <ele>18.2</ele>
        <time>2018-08-02T17:43:58Z</time>
      </trkpt>
      <trkpt lat="62.324145258243" lon="17.432256525">
        <ele>18.4</ele>
        <time>2018-08-02T17:44:04Z</time>
      </trkpt>
      <trkpt lat="62.324321613419" lon="17.432174633837">
        <ele>19</ele>
        <time>2018-08-02T17:44:10Z</time>
      </trkpt>
      <trkpt lat="62.324501488993" lon="17.431901802992">
        <ele>18.8</ele>
        <time>2018-08-02T17:44:16Z</time>
      </trkpt>
      <trkpt lat="62.324672815029" lon="17.431603072076">
        <ele>19</ele>
        <time>2018-08-02T17:44:22Z</time>
      </trkpt>
      <trkpt lat="62.324801896289" lon="17.431298557649">
        <ele>19.4</ele>
        <time>2018-08-02T17:44:28Z</time>
      </trkpt>
      <trkpt lat="62.324890912067" lon="17.431057829481">
        <ele>20.4</ele>
        <time>2018-08-02T17:44:34Z</time>
      </trkpt>
      <trkpt lat="62.324901724718" lon="17.431006029339">
        <ele>20.4</ele>
        <time>2018-08-02T17:44:35Z</time>
      </trkpt>
      <trkpt lat="62.324952016118" lon="17.430739568738">
        <ele>20.8</ele>
        <time>2018-08-02T17:44:41Z</time>
      </trkpt>
      <trkpt lat="62.32500968359" lon="17.430542510269">
        <ele>21.6</ele>
        <time>2018-08-02T17:44:45Z</time>
      </trkpt>
      <trkpt lat="62.325092832038" lon="17.430216286721">
        <ele>22.4</ele>
        <time>2018-08-02T17:44:51Z</time>
      </trkpt>
      <trkpt lat="62.325138597212" lon="17.430015372578">
        <ele>22.6</ele>
        <time>2018-08-02T17:44:54Z</time>
      </trkpt>
      <trkpt lat="62.325224176411" lon="17.429607593143">
        <ele>23</ele>
        <time>2018-08-02T17:45:00Z</time>
      </trkpt>
      <trkpt lat="62.325315371483" lon="17.429118928373">
        <ele>22.2</ele>
        <time>2018-08-02T17:45:06Z</time>
      </trkpt>
      <trkpt lat="62.325392401144" lon="17.428657923873">
        <ele>22.6</ele>
        <time>2018-08-02T17:45:12Z</time>
      </trkpt>
      <trkpt lat="62.325463228199" lon="17.428231368982">
        <ele>23</ele>
        <time>2018-08-02T17:45:18Z</time>
      </trkpt>
      <trkpt lat="62.325491559021" lon="17.427802802435">
        <ele>23.2</ele>
        <time>2018-08-02T17:45:24Z</time>
      </trkpt>
      <trkpt lat="62.325547298656" lon="17.42741094861">
        <ele>23.4</ele>
        <time>2018-08-02T17:45:30Z</time>
      </trkpt>
      <trkpt lat="62.32557965279" lon="17.427000486967">
        <ele>23</ele>
        <time>2018-08-02T17:45:36Z</time>
      </trkpt>
      <trkpt lat="62.325676212278" lon="17.426509726722">
        <ele>23.2</ele>
        <time>2018-08-02T17:45:42Z</time>
      </trkpt>
      <trkpt lat="62.325772855585" lon="17.426155591447">
        <ele>23.6</ele>
        <time>2018-08-02T17:45:48Z</time>
      </trkpt>
      <trkpt lat="62.325780315476" lon="17.426104964771">
        <ele>23.8</ele>
        <time>2018-08-02T17:45:49Z</time>
      </trkpt>
      <trkpt lat="62.325900176646" lon="17.42570607015">
        <ele>24.2</ele>
        <time>2018-08-02T17:45:55Z</time>
      </trkpt>
      <trkpt lat="62.325961364516" lon="17.425549160982">
        <ele>23.6</ele>
        <time>2018-08-02T17:45:57Z</time>
      </trkpt>
      <trkpt lat="62.326141491547" lon="17.42518890692">
        <ele>23.2</ele>
        <time>2018-08-02T17:46:03Z</time>
      </trkpt>
      <trkpt lat="62.326324216967" lon="17.424868885978">
        <ele>23</ele>
        <time>2018-08-02T17:46:09Z</time>
      </trkpt>
      <trkpt lat="62.326475929357" lon="17.42452673682">
        <ele>23.2</ele>
        <time>2018-08-02T17:46:15Z</time>
      </trkpt>
      <trkpt lat="62.326611548499" lon="17.424223395859">
        <ele>23.6</ele>
        <time>2018-08-02T17:46:21Z</time>
      </trkpt>
      <trkpt lat="62.32676820621" lon="17.42383187731">
        <ele>23.4</ele>
        <time>2018-08-02T17:46:27Z</time>
      </trkpt>
      <trkpt lat="62.326924025731" lon="17.423480591881">
        <ele>23.6</ele>
        <time>2018-08-02T17:46:32Z</time>
      </trkpt>
      <trkpt lat="62.327094932672" lon="17.423143639501">
        <ele>23.4</ele>
        <time>2018-08-02T17:46:38Z</time>
      </trkpt>
      <trkpt lat="62.327277155178" lon="17.422783972172">
        <ele>22.6</ele>
        <time>2018-08-02T17:46:44Z</time>
      </trkpt>
      <trkpt lat="62.327377486521" lon="17.422582052201">
        <ele>21.4</ele>
        <time>2018-08-02T17:46:47Z</time>
      </trkpt>
      <trkpt lat="62.327463484815" lon="17.422457497167">
        <ele>20.2</ele>
        <time>2018-08-02T17:46:49Z</time>
      </trkpt>
      <trkpt lat="62.327568258565" lon="17.422341156395">
        <ele>19.2</ele>
        <time>2018-08-02T17:46:51Z</time>
      </trkpt>
      <trkpt lat="62.327626680408" lon="17.422290697357">
        <ele>18.8</ele>
        <time>2018-08-02T17:46:52Z</time>
      </trkpt>
      <trkpt lat="62.3278167819" lon="17.42218651034">
        <ele>17.6</ele>
        <time>2018-08-02T17:46:55Z</time>
      </trkpt>
      <trkpt lat="62.328004787917" lon="17.422139655519">
        <ele>16.4</ele>
        <time>2018-08-02T17:46:58Z</time>
      </trkpt>
      <trkpt lat="62.328327742524" lon="17.421944441068">
        <ele>16.4</ele>
        <time>2018-08-02T17:47:04Z</time>
      </trkpt>
      <trkpt lat="62.328412315895" lon="17.421804966252">
        <ele>17</ele>
        <time>2018-08-02T17:47:06Z</time>
      </trkpt>
      <trkpt lat="62.328488339728" lon="17.421739252156">
        <ele>17.4</ele>
        <time>2018-08-02T17:47:08Z</time>
      </trkpt>
      <trkpt lat="62.328714651028" lon="17.421553090157">
        <ele>17.6</ele>
        <time>2018-08-02T17:47:13Z</time>
      </trkpt>
      <trkpt lat="62.328848929066" lon="17.421419901766">
        <ele>15.8</ele>
        <time>2018-08-02T17:47:16Z</time>
      </trkpt>
      <trkpt lat="62.329099380238" lon="17.421167355119">
        <ele>15.4</ele>
        <time>2018-08-02T17:47:22Z</time>
      </trkpt>
      <trkpt lat="62.329137098788" lon="17.421117398995">
        <ele>15.8</ele>
        <time>2018-08-02T17:47:23Z</time>
      </trkpt>
      <trkpt lat="62.329347652116" lon="17.420805257039">
        <ele>16.6</ele>
        <time>2018-08-02T17:47:28Z</time>
      </trkpt>
      <trkpt lat="62.329482516887" lon="17.420564193595">
        <ele>14.8</ele>
        <time>2018-08-02T17:47:31Z</time>
      </trkpt>
      <trkpt lat="62.32958033366" lon="17.420336876467">
        <ele>13</ele>
        <time>2018-08-02T17:47:33Z</time>
      </trkpt>
      <trkpt lat="62.329632720535" lon="17.420200083859">
        <ele>11.8</ele>
        <time>2018-08-02T17:47:34Z</time>
      </trkpt>
      <trkpt lat="62.329685358867" lon="17.420051472772">
        <ele>10.6</ele>
        <time>2018-08-02T17:47:35Z</time>
      </trkpt>
      <trkpt lat="62.329737410466" lon="17.419913590517">
        <ele>9.4</ele>
        <time>2018-08-02T17:47:36Z</time>
      </trkpt>
      <trkpt lat="62.329787534228" lon="17.419777636099">
        <ele>8.4</ele>
        <time>2018-08-02T17:47:37Z</time>
      </trkpt>
      <trkpt lat="62.33000194323" lon="17.419242535603">
        <ele>8.2</ele>
        <time>2018-08-02T17:47:42Z</time>
      </trkpt>
      <trkpt lat="62.330068495516" lon="17.41912376408">
        <ele>10.2</ele>
        <time>2018-08-02T17:47:44Z</time>
      </trkpt>
      <trkpt lat="62.33009749689" lon="17.419069617006">
        <ele>11.2</ele>
        <time>2018-08-02T17:47:45Z</time>
      </trkpt>
      <trkpt lat="62.330153236525" lon="17.418940116651">
        <ele>12.6</ele>
        <time>2018-08-02T17:47:47Z</time>
      </trkpt>
      <trkpt lat="62.330300757965" lon="17.418540886754">
        <ele>13</ele>
        <time>2018-08-02T17:47:53Z</time>
      </trkpt>
      <trkpt lat="62.330451632165" lon="17.418171244964">
        <ele>13.2</ele>
        <time>2018-08-02T17:47:59Z</time>
      </trkpt>
      <trkpt lat="62.330490021267" lon="17.418073847286">
        <ele>13.6</ele>
        <time>2018-08-02T17:48:01Z</time>
      </trkpt>
      <trkpt lat="62.330612480826" lon="17.417733374508">
        <ele>14.2</ele>
        <time>2018-08-02T17:48:07Z</time>
      </trkpt>
      <trkpt lat="62.330705268459" lon="17.417498932765">
        <ele>14.8</ele>
        <time>2018-08-02T17:48:12Z</time>
      </trkpt>
      <trkpt lat="62.330796714988" lon="17.41717832509">
        <ele>15.4</ele>
        <time>2018-08-02T17:48:18Z</time>
      </trkpt>
      <trkpt lat="62.330921772936" lon="17.416867775695">
        <ele>15.2</ele>
        <time>2018-08-02T17:48:24Z</time>
      </trkpt>
      <trkpt lat="62.331019422071" lon="17.416738023883">
        <ele>16</ele>
        <time>2018-08-02T17:48:28Z</time>
      </trkpt>
      <trkpt lat="62.331164261303" lon="17.416645739164">
        <ele>16.2</ele>
        <time>2018-08-02T17:48:34Z</time>
      </trkpt>
      <trkpt lat="62.331351177673" lon="17.416526297089">
        <ele>16.4</ele>
        <time>2018-08-02T17:48:40Z</time>
      </trkpt>
      <trkpt lat="62.331571705462" lon="17.416452704007">
        <ele>16.6</ele>
        <time>2018-08-02T17:48:46Z</time>
      </trkpt>
      <trkpt lat="62.331631719866" lon="17.416422445348">
        <ele>17</ele>
        <time>2018-08-02T17:48:48Z</time>
      </trkpt>
      <trkpt lat="62.331751329579" lon="17.416150452693">
        <ele>17</ele>
        <time>2018-08-02T17:48:54Z</time>
      </trkpt>
      <trkpt lat="62.331758035099" lon="17.416018521587">
        <ele>17.4</ele>
        <time>2018-08-02T17:48:56Z</time>
      </trkpt>
      <trkpt lat="62.331685950759" lon="17.41563773187">
        <ele>17.6</ele>
        <time>2018-08-02T17:49:02Z</time>
      </trkpt>
      <trkpt lat="62.331633982979" lon="17.415329361769">
        <ele>18</ele>
        <time>2018-08-02T17:49:07Z</time>
      </trkpt>
      <trkpt lat="62.331604059596" lon="17.414958378875">
        <ele>18.4</ele>
        <time>2018-08-02T17:49:13Z</time>
      </trkpt>
      <trkpt lat="62.331646639648" lon="17.414636430096">
        <ele>18.4</ele>
        <time>2018-08-02T17:49:19Z</time>
      </trkpt>
      <trkpt lat="62.331717801979" lon="17.414378099938">
        <ele>19.2</ele>
        <time>2018-08-02T17:49:24Z</time>
      </trkpt>
      <trkpt lat="62.331816373123" lon="17.414085487809">
        <ele>19.6</ele>
        <time>2018-08-02T17:49:30Z</time>
      </trkpt>
      <trkpt lat="62.331906227091" lon="17.413794635879">
        <ele>20.2</ele>
        <time>2018-08-02T17:49:36Z</time>
      </trkpt>
      <trkpt lat="62.331965487124" lon="17.413628171345">
        <ele>20.2</ele>
        <time>2018-08-02T17:49:41Z</time>
      </trkpt>
      <trkpt lat="62.331872448034" lon="17.413911144289">
        <ele>20.4</ele>
        <time>2018-08-02T17:49:52Z</time>
      </trkpt>
      <trkpt lat="62.331831795819" lon="17.41407869847">
        <ele>19.8</ele>
        <time>2018-08-02T17:49:55Z</time>
      </trkpt>
      <trkpt lat="62.331749234104" lon="17.41432344995">
        <ele>19.2</ele>
        <time>2018-08-02T17:49:59Z</time>
      </trkpt>
      <trkpt lat="62.331652926073" lon="17.414654954095">
        <ele>19.8</ele>
        <time>2018-08-02T17:50:05Z</time>
      </trkpt>
      <trkpt lat="62.331611016573" lon="17.415101877003">
        <ele>19.6</ele>
        <time>2018-08-02T17:50:11Z</time>
      </trkpt>
      <trkpt lat="62.331618225007" lon="17.415576711638">
        <ele>19.4</ele>
        <time>2018-08-02T17:50:17Z</time>
      </trkpt>
      <trkpt lat="62.33162300269" lon="17.415714761531">
        <ele>17.8</ele>
        <time>2018-08-02T17:50:19Z</time>
      </trkpt>
      <trkpt lat="62.331634904988" lon="17.415867228292">
        <ele>16.4</ele>
        <time>2018-08-02T17:50:21Z</time>
      </trkpt>
      <trkpt lat="62.331603891958" lon="17.416291939165">
        <ele>17.6</ele>
        <time>2018-08-02T17:50:27Z</time>
      </trkpt>
      <trkpt lat="62.33159366604" lon="17.416398556933">
        <ele>17.8</ele>
        <time>2018-08-02T17:50:29Z</time>
      </trkpt>
      <trkpt lat="62.331359308116" lon="17.416498804457">
        <ele>17.6</ele>
        <time>2018-08-02T17:50:35Z</time>
      </trkpt>
      <trkpt lat="62.331136098119" lon="17.416610199908">
        <ele>17.8</ele>
        <time>2018-08-02T17:50:41Z</time>
      </trkpt>
      <trkpt lat="62.330914313045" lon="17.416834583371">
        <ele>17.2</ele>
        <time>2018-08-02T17:50:47Z</time>
      </trkpt>
      <trkpt lat="62.330835020271" lon="17.417021835017">
        <ele>16.6</ele>
        <time>2018-08-02T17:50:50Z</time>
      </trkpt>
      <trkpt lat="62.330782214301" lon="17.417158627625">
        <ele>15.4</ele>
        <time>2018-08-02T17:50:52Z</time>
      </trkpt>
      <trkpt lat="62.33065740781" lon="17.417497088747">
        <ele>14.4</ele>
        <time>2018-08-02T17:50:57Z</time>
      </trkpt>
      <trkpt lat="62.330511311293" lon="17.417939317791">
        <ele>13.8</ele>
        <time>2018-08-02T17:51:03Z</time>
      </trkpt>
      <trkpt lat="62.330424893904" lon="17.418182560529">
        <ele>13.8</ele>
        <time>2018-08-02T17:51:06Z</time>
      </trkpt>
      <trkpt lat="62.330368651355" lon="17.418344834113">
        <ele>13.8</ele>
        <time>2018-08-02T17:51:08Z</time>
      </trkpt>
      <trkpt lat="62.330300674146" lon="17.418491601182">
        <ele>13.2</ele>
        <time>2018-08-02T17:51:10Z</time>
      </trkpt>
      <trkpt lat="62.330235714421" lon="17.418612887275">
        <ele>12</ele>
        <time>2018-08-02T17:51:12Z</time>
      </trkpt>
      <trkpt lat="62.329975540245" lon="17.419009015869">
        <ele>11.4</ele>
        <time>2018-08-02T17:51:18Z</time>
      </trkpt>
      <trkpt lat="62.32979826306" lon="17.419375137261">
        <ele>12.2</ele>
        <time>2018-08-02T17:51:23Z</time>
      </trkpt>
      <trkpt lat="62.329685358867" lon="17.419622906225">
        <ele>10.6</ele>
        <time>2018-08-02T17:51:26Z</time>
      </trkpt>
      <trkpt lat="62.329493580995" lon="17.420036972085">
        <ele>11.4</ele>
        <time>2018-08-02T17:51:32Z</time>
      </trkpt>
      <trkpt lat="62.329474386444" lon="17.420093214634">
        <ele>11.8</ele>
        <time>2018-08-02T17:51:33Z</time>
      </trkpt>
      <trkpt lat="62.329427950718" lon="17.42024693868">
        <ele>13</ele>
        <time>2018-08-02T17:51:36Z</time>
      </trkpt>
      <trkpt lat="62.329383778105" lon="17.420471992695">
        <ele>13.6</ele>
        <time>2018-08-02T17:51:42Z</time>
      </trkpt>
      <trkpt lat="62.329383107553" lon="17.420546759243">
        <ele>14.2</ele>
        <time>2018-08-02T17:51:44Z</time>
      </trkpt>
      <trkpt lat="62.329377575499" lon="17.420701321479">
        <ele>15.2</ele>
        <time>2018-08-02T17:51:49Z</time>
      </trkpt>
      <trkpt lat="62.329330469221" lon="17.420813136025">
        <ele>16.4</ele>
        <time>2018-08-02T17:51:54Z</time>
      </trkpt>
      <trkpt lat="62.329239525606" lon="17.420972308306">
        <ele>16.8</ele>
        <time>2018-08-02T17:52:00Z</time>
      </trkpt>
      <trkpt lat="62.329108097414" lon="17.421137599374">
        <ele>17</ele>
        <time>2018-08-02T17:52:06Z</time>
      </trkpt>
      <trkpt lat="62.328935430274" lon="17.421300292053">
        <ele>16.6</ele>
        <time>2018-08-02T17:52:12Z</time>
      </trkpt>
      <trkpt lat="62.328800649322" lon="17.421457620316">
        <ele>17</ele>
        <time>2018-08-02T17:52:18Z</time>
      </trkpt>
      <trkpt lat="62.328747927171" lon="17.421491734649">
        <ele>17.4</ele>
        <time>2018-08-02T17:52:20Z</time>
      </trkpt>
      <trkpt lat="62.32862898801" lon="17.421588797051">
        <ele>18.2</ele>
        <time>2018-08-02T17:52:26Z</time>
      </trkpt>
      <trkpt lat="62.328509881211" lon="17.421652750948">
        <ele>18.4</ele>
        <time>2018-08-02T17:52:31Z</time>
      </trkpt>
      <trkpt lat="62.328309386163" lon="17.421739922708">
        <ele>18.2</ele>
        <time>2018-08-02T17:52:37Z</time>
      </trkpt>
      <trkpt lat="62.328099168111" lon="17.421845031734">
        <ele>18.8</ele>
        <time>2018-08-02T17:52:43Z</time>
      </trkpt>
      <trkpt lat="62.327903366927" lon="17.421972101338">
        <ele>18.8</ele>
        <time>2018-08-02T17:52:49Z</time>
      </trkpt>
      <trkpt lat="62.327745284293" lon="17.422067235903">
        <ele>18.4</ele>
        <time>2018-08-02T17:52:55Z</time>
      </trkpt>
      <trkpt lat="62.327649311538" lon="17.42215298274">
        <ele>19.4</ele>
        <time>2018-08-02T17:52:59Z</time>
      </trkpt>
      <trkpt lat="62.327508663256" lon="17.422333361228">
        <ele>20</ele>
        <time>2018-08-02T17:53:05Z</time>
      </trkpt>
      <trkpt lat="62.327442865341" lon="17.422418102237">
        <ele>20.4</ele>
        <time>2018-08-02T17:53:08Z</time>
      </trkpt>
      <trkpt lat="62.327335409383" lon="17.42260141439">
        <ele>21.4</ele>
        <time>2018-08-02T17:53:14Z</time>
      </trkpt>
      <trkpt lat="62.327303222887" lon="17.422693196195">
        <ele>21.6</ele>
        <time>2018-08-02T17:53:16Z</time>
      </trkpt>
      <trkpt lat="62.327214626204" lon="17.422961668452">
        <ele>22.2</ele>
        <time>2018-08-02T17:53:22Z</time>
      </trkpt>
      <trkpt lat="62.327139021466" lon="17.423170042486">
        <ele>22.6</ele>
        <time>2018-08-02T17:53:27Z</time>
      </trkpt>
      <trkpt lat="62.327036846105" lon="17.423367771507">
        <ele>23.2</ele>
        <time>2018-08-02T17:53:33Z</time>
      </trkpt>
      <trkpt lat="62.326936514762" lon="17.423568601831">
        <ele>23.8</ele>
        <time>2018-08-02T17:53:38Z</time>
      </trkpt>
      <trkpt lat="62.326784467096" lon="17.423848473472">
        <ele>23.4</ele>
        <time>2018-08-02T17:53:44Z</time>
      </trkpt>
      <trkpt lat="62.326661504623" lon="17.42410512725">
        <ele>23.6</ele>
        <time>2018-08-02T17:53:50Z</time>
      </trkpt>
      <trkpt lat="62.326477270461" lon="17.424473008841">
        <ele>23.4</ele>
        <time>2018-08-02T17:53:56Z</time>
      </trkpt>
      <trkpt lat="62.326326731537" lon="17.424812308153">
        <ele>23</ele>
        <time>2018-08-02T17:54:02Z</time>
      </trkpt>
      <trkpt lat="62.326194716612" lon="17.425107770128">
        <ele>22.2</ele>
        <time>2018-08-02T17:54:07Z</time>
      </trkpt>
      <trkpt lat="62.32611609439" lon="17.425304744778">
        <ele>21</ele>
        <time>2018-08-02T17:54:10Z</time>
      </trkpt>
      <trkpt lat="62.326066808818" lon="17.425436340608">
        <ele>21.4</ele>
        <time>2018-08-02T17:54:12Z</time>
      </trkpt>
      <trkpt lat="62.325928088373" lon="17.425814867212">
        <ele>21.8</ele>
        <time>2018-08-02T17:54:18Z</time>
      </trkpt>
      <trkpt lat="62.325914425876" lon="17.425861470576">
        <ele>22</ele>
        <time>2018-08-02T17:54:19Z</time>
      </trkpt>
      <trkpt lat="62.325846281029" lon="17.42617545655">
        <ele>22.6</ele>
        <time>2018-08-02T17:54:25Z</time>
      </trkpt>
      <trkpt lat="62.325749470084" lon="17.42649899789">
        <ele>21.2</ele>
        <time>2018-08-02T17:54:31Z</time>
      </trkpt>
      <trkpt lat="62.325731532818" lon="17.426571166049">
        <ele>21</ele>
        <time>2018-08-02T17:54:32Z</time>
      </trkpt>
      <trkpt lat="62.325657772098" lon="17.427043569933">
        <ele>21.6</ele>
        <time>2018-08-02T17:54:38Z</time>
      </trkpt>
      <trkpt lat="62.325641259755" lon="17.427185726957">
        <ele>22</ele>
        <time>2018-08-02T17:54:40Z</time>
      </trkpt>
      <trkpt lat="62.325584430473" lon="17.427604486681">
        <ele>22.2</ele>
        <time>2018-08-02T17:54:46Z</time>
      </trkpt>
      <trkpt lat="62.325486110786" lon="17.428041183671">
        <ele>22</ele>
        <time>2018-08-02T17:54:52Z</time>
      </trkpt>
      <trkpt lat="62.325412517704" lon="17.428494141547">
        <ele>22</ele>
        <time>2018-08-02T17:54:58Z</time>
      </trkpt>
      <trkpt lat="62.325376056439" lon="17.42902614074">
        <ele>21.8</ele>
        <time>2018-08-02T17:55:04Z</time>
      </trkpt>
      <trkpt lat="62.32524689136" lon="17.429552440241">
        <ele>21.8</ele>
        <time>2018-08-02T17:55:10Z</time>
      </trkpt>
      <trkpt lat="62.325130634407" lon="17.429954519984">
        <ele>21.8</ele>
        <time>2018-08-02T17:55:16Z</time>
      </trkpt>
      <trkpt lat="62.325036589489" lon="17.430431869189">
        <ele>22</ele>
        <time>2018-08-02T17:55:22Z</time>
      </trkpt>
      <trkpt lat="62.325017311119" lon="17.430516358741">
        <ele>21.8</ele>
        <time>2018-08-02T17:55:23Z</time>
      </trkpt>
      <trkpt lat="62.324989399392" lon="17.430633370065">
        <ele>21</ele>
        <time>2018-08-02T17:55:24Z</time>
      </trkpt>
      <trkpt lat="62.324969031375" lon="17.430728839906">
        <ele>22</ele>
        <time>2018-08-02T17:55:25Z</time>
      </trkpt>
      <trkpt lat="62.324944723865" lon="17.430810144336">
        <ele>20.6</ele>
        <time>2018-08-02T17:55:26Z</time>
      </trkpt>
      <trkpt lat="62.324890241515" lon="17.430966047676">
        <ele>19.4</ele>
        <time>2018-08-02T17:55:28Z</time>
      </trkpt>
      <trkpt lat="62.324753868002" lon="17.431384723581">
        <ele>18.4</ele>
        <time>2018-08-02T17:55:33Z</time>
      </trkpt>
      <trkpt lat="62.3246819513" lon="17.431552948314">
        <ele>18</ele>
        <time>2018-08-02T17:55:35Z</time>
      </trkpt>
      <trkpt lat="62.324603077621" lon="17.431713545518">
        <ele>17.8</ele>
        <time>2018-08-02T17:55:37Z</time>
      </trkpt>
      <trkpt lat="62.324381124909" lon="17.432145464825">
        <ele>19.2</ele>
        <time>2018-08-02T17:55:43Z</time>
      </trkpt>
      <trkpt lat="62.324347010576" lon="17.432189553619">
        <ele>19.6</ele>
        <time>2018-08-02T17:55:44Z</time>
      </trkpt>
      <trkpt lat="62.324124806407" lon="17.432276557741">
        <ele>20.2</ele>
        <time>2018-08-02T17:55:50Z</time>
      </trkpt>
      <trkpt lat="62.324041741778" lon="17.432316623223">
        <ele>20</ele>
        <time>2018-08-02T17:55:52Z</time>
      </trkpt>
      <trkpt lat="62.32387477433" lon="17.432534468804">
        <ele>19.8</ele>
        <time>2018-08-02T17:55:58Z</time>
      </trkpt>
      <trkpt lat="62.323782657249" lon="17.432971333432">
        <ele>19.6</ele>
        <time>2018-08-02T17:56:04Z</time>
      </trkpt>
      <trkpt lat="62.323709902357" lon="17.433479360391">
        <ele>18.8</ele>
        <time>2018-08-02T17:56:09Z</time>
      </trkpt>
      <trkpt lat="62.323700095534" lon="17.433568543807">
        <ele>18.4</ele>
        <time>2018-08-02T17:56:10Z</time>
      </trkpt>
      <trkpt lat="62.323673189635" lon="17.433761411326">
        <ele>17.8</ele>
        <time>2018-08-02T17:56:12Z</time>
      </trkpt>
      <trkpt lat="62.323606469711" lon="17.434207244587">
        <ele>17.4</ele>
        <time>2018-08-02T17:56:17Z</time>
      </trkpt>
      <trkpt lat="62.323585179685" lon="17.43439558588">
        <ele>17.2</ele>
        <time>2018-08-02T17:56:19Z</time>
      </trkpt>
      <trkpt lat="62.323548466963" lon="17.43460010424">
        <ele>16.8</ele>
        <time>2018-08-02T17:56:21Z</time>
      </trkpt>
      <trkpt lat="62.323517789209" lon="17.434823649513">
        <ele>16.2</ele>
        <time>2018-08-02T17:56:23Z</time>
      </trkpt>
      <trkpt lat="62.32350680892" lon="17.434938397724">
        <ele>15.6</ele>
        <time>2018-08-02T17:56:24Z</time>
      </trkpt>
      <trkpt lat="62.323498343201" lon="17.435054822315">
        <ele>15</ele>
        <time>2018-08-02T17:56:25Z</time>
      </trkpt>
      <trkpt lat="62.323485770351" lon="17.435164876662">
        <ele>14.8</ele>
        <time>2018-08-02T17:56:26Z</time>
      </trkpt>
      <trkpt lat="62.323466408162" lon="17.435266297652">
        <ele>14.6</ele>
        <time>2018-08-02T17:56:27Z</time>
      </trkpt>
      <trkpt lat="62.323437155331" lon="17.435352128308">
        <ele>14.2</ele>
        <time>2018-08-02T17:56:28Z</time>
      </trkpt>
      <trkpt lat="62.323397760401" lon="17.43542991234">
        <ele>13.8</ele>
        <time>2018-08-02T17:56:29Z</time>
      </trkpt>
      <trkpt lat="62.323344116241" lon="17.435490345839">
        <ele>13.2</ele>
        <time>2018-08-02T17:56:30Z</time>
      </trkpt>
      <trkpt lat="62.323289969167" lon="17.435525801276">
        <ele>12.6</ele>
        <time>2018-08-02T17:56:31Z</time>
      </trkpt>
      <trkpt lat="62.323034572674" lon="17.435716238044">
        <ele>11.6</ele>
        <time>2018-08-02T17:56:36Z</time>
      </trkpt>
      <trkpt lat="62.322772638299" lon="17.435978340057">
        <ele>10.8</ele>
        <time>2018-08-02T17:56:42Z</time>
      </trkpt>
      <trkpt lat="62.322579184047" lon="17.436199622217">
        <ele>10.2</ele>
        <time>2018-08-02T17:56:47Z</time>
      </trkpt>
      <trkpt lat="62.322354716765" lon="17.436423502766">
        <ele>10.2</ele>
        <time>2018-08-02T17:56:53Z</time>
      </trkpt>
      <trkpt lat="62.322163609445" lon="17.436526935412">
        <ele>11.2</ele>
        <time>2018-08-02T17:56:59Z</time>
      </trkpt>
      <trkpt lat="62.322132931691" lon="17.436534143846">
        <ele>11.4</ele>
        <time>2018-08-02T17:57:00Z</time>
      </trkpt>
      <trkpt lat="62.321964287863" lon="17.436570605111">
        <ele>12.4</ele>
        <time>2018-08-02T17:57:06Z</time>
      </trkpt>
      <trkpt lat="62.321819029536" lon="17.436593655336">
        <ele>13</ele>
        <time>2018-08-02T17:57:12Z</time>
      </trkpt>
      <trkpt lat="62.321695396511" lon="17.436578400278">
        <ele>13.6</ele>
        <time>2018-08-02T17:57:18Z</time>
      </trkpt>
      <trkpt lat="62.321530775995" lon="17.436632547352">
        <ele>14.6</ele>
        <time>2018-08-02T17:57:24Z</time>
      </trkpt>
      <trkpt lat="62.321381745813" lon="17.436704296416">
        <ele>14.8</ele>
        <time>2018-08-02T17:57:30Z</time>
      </trkpt>
      <trkpt lat="62.321225507197" lon="17.436772944177">
        <ele>15.2</ele>
        <time>2018-08-02T17:57:36Z</time>
      </trkpt>
      <trkpt lat="62.321107154769" lon="17.436832036572">
        <ele>15.6</ele>
        <time>2018-08-02T17:57:40Z</time>
      </trkpt>
      <trkpt lat="62.32092769829" lon="17.4369252433">
        <ele>15.8</ele>
        <time>2018-08-02T17:57:46Z</time>
      </trkpt>
      <trkpt lat="62.320818482133" lon="17.436972349578">
        <ele>16</ele>
        <time>2018-08-02T17:57:52Z</time>
      </trkpt>
      <trkpt lat="62.320685377561" lon="17.437049798334">
        <ele>16.6</ele>
        <time>2018-08-02T17:57:58Z</time>
      </trkpt>
      <trkpt lat="62.320674397272" lon="17.437052061447">
        <ele>16.8</ele>
        <time>2018-08-02T17:57:59Z</time>
      </trkpt>
      <trkpt lat="62.320519667398" lon="17.437015264906">
        <ele>16.8</ele>
        <time>2018-08-02T17:58:05Z</time>
      </trkpt>
      <trkpt lat="62.320329146811" lon="17.437026077557">
        <ele>17.2</ele>
        <time>2018-08-02T17:58:11Z</time>
      </trkpt>
      <trkpt lat="62.320138039491" lon="17.437091791653">
        <ele>17.4</ele>
        <time>2018-08-02T17:58:17Z</time>
      </trkpt>
      <trkpt lat="62.319884738473" lon="17.437286754647">
        <ele>17.8</ele>
        <time>2018-08-02T17:58:23Z</time>
      </trkpt>
      <trkpt lat="62.319738977232" lon="17.437366298878">
        <ele>17.8</ele>
        <time>2018-08-02T17:58:27Z</time>
      </trkpt>
      <trkpt lat="62.319558766382" lon="17.437451961896">
        <ele>18</ele>
        <time>2018-08-02T17:58:33Z</time>
      </trkpt>
      <trkpt lat="62.319471175527" lon="17.43742145178">
        <ele>18.6</ele>
        <time>2018-08-02T17:58:39Z</time>
      </trkpt>
      <trkpt lat="62.319339160602" lon="17.437479705985">
        <ele>19</ele>
        <time>2018-08-02T17:58:45Z</time>
      </trkpt>
      <trkpt lat="62.31920605603" lon="17.437604512476">
        <ele>19.2</ele>
        <time>2018-08-02T17:58:51Z</time>
      </trkpt>
      <trkpt lat="62.319089212344" lon="17.437756476323">
        <ele>19.4</ele>
        <time>2018-08-02T17:58:57Z</time>
      </trkpt>
      <trkpt lat="62.318961053093" lon="17.437947080729">
        <ele>19.6</ele>
        <time>2018-08-02T17:59:03Z</time>
      </trkpt>
      <trkpt lat="62.318917886308" lon="17.438038275801">
        <ele>20</ele>
        <time>2018-08-02T17:59:05Z</time>
      </trkpt>
      <trkpt lat="62.318735412345" lon="17.438190742562">
        <ele>20.2</ele>
        <time>2018-08-02T17:59:11Z</time>
      </trkpt>
      <trkpt lat="62.318539024428" lon="17.438346729721">
        <ele>20.2</ele>
        <time>2018-08-02T17:59:17Z</time>
      </trkpt>
      <trkpt lat="62.318343809977" lon="17.43848930584">
        <ele>20</ele>
        <time>2018-08-02T17:59:23Z</time>
      </trkpt>
      <trkpt lat="62.318163180032" lon="17.438633558339">
        <ele>20.2</ele>
        <time>2018-08-02T17:59:29Z</time>
      </trkpt>
      <trkpt lat="62.317966205382" lon="17.438840255993">
        <ele>20.6</ele>
        <time>2018-08-02T17:59:35Z</time>
      </trkpt>
      <trkpt lat="62.317639981834" lon="17.439190116499">
        <ele>19.4</ele>
        <time>2018-08-02T17:59:45Z</time>
      </trkpt>
      <trkpt lat="62.317404198987" lon="17.439474849642">
        <ele>19.4</ele>
        <time>2018-08-02T17:59:51Z</time>
      </trkpt>
      <trkpt lat="62.31731007025" lon="17.439587837654">
        <ele>18.6</ele>
        <time>2018-08-02T17:59:53Z</time>
      </trkpt>
      <trkpt lat="62.317226502707" lon="17.439707447367">
        <ele>17</ele>
        <time>2018-08-02T17:59:55Z</time>
      </trkpt>
      <trkpt lat="62.317138073662" lon="17.439832421496">
        <ele>15.8</ele>
        <time>2018-08-02T17:59:57Z</time>
      </trkpt>
      <trkpt lat="62.316922910289" lon="17.44019669887">
        <ele>16.6</ele>
        <time>2018-08-02T18:00:03Z</time>
      </trkpt>
      <trkpt lat="62.316890388517" lon="17.440245481528">
        <ele>16.8</ele>
        <time>2018-08-02T18:00:04Z</time>
      </trkpt>
      <trkpt lat="62.316707998373" lon="17.440554773638">
        <ele>16</ele>
        <time>2018-08-02T18:00:10Z</time>
      </trkpt>
      <trkpt lat="62.31655486106" lon="17.44076582988">
        <ele>15.8</ele>
        <time>2018-08-02T18:00:15Z</time>
      </trkpt>
      <trkpt lat="62.316405495602" lon="17.441000020166">
        <ele>15.2</ele>
        <time>2018-08-02T18:00:21Z</time>
      </trkpt>
      <trkpt lat="62.316334668547" lon="17.441161707017">
        <ele>14.6</ele>
        <time>2018-08-02T18:00:24Z</time>
      </trkpt>
      <trkpt lat="62.316270882288" lon="17.441340576763">
        <ele>13.6</ele>
        <time>2018-08-02T18:00:27Z</time>
      </trkpt>
      <trkpt lat="62.316155295887" lon="17.441773585717">
        <ele>12.2</ele>
        <time>2018-08-02T18:00:32Z</time>
      </trkpt>
      <trkpt lat="62.316107770514" lon="17.441960669725">
        <ele>10.6</ele>
        <time>2018-08-02T18:00:34Z</time>
      </trkpt>
      <trkpt lat="62.316078936778" lon="17.442050523693">
        <ele>10</ele>
        <time>2018-08-02T18:00:35Z</time>
      </trkpt>
      <trkpt lat="62.316045744454" lon="17.442140377661">
        <ele>9.4</ele>
        <time>2018-08-02T18:00:36Z</time>
      </trkpt>
      <trkpt lat="62.315935271012" lon="17.442410023384">
        <ele>8.2</ele>
        <time>2018-08-02T18:00:39Z</time>
      </trkpt>
      <trkpt lat="62.315677946682" lon="17.442902962923">
        <ele>7.8</ele>
        <time>2018-08-02T18:00:45Z</time>
      </trkpt>
      <trkpt lat="62.315596893709" lon="17.443084514877">
        <ele>9.6</ele>
        <time>2018-08-02T18:00:48Z</time>
      </trkpt>
      <trkpt lat="62.315422550189" lon="17.443416605755">
        <ele>9.8</ele>
        <time>2018-08-02T18:00:53Z</time>
      </trkpt>
      <trkpt lat="62.315311154738" lon="17.443704691658">
        <ele>10.6</ele>
        <time>2018-08-02T18:00:57Z</time>
      </trkpt>
      <trkpt lat="62.31516262747" lon="17.443947431482">
        <ele>9.8</ele>
        <time>2018-08-02T18:01:01Z</time>
      </trkpt>
      <trkpt lat="62.315125244196" lon="17.44399453776">
        <ele>9.4</ele>
        <time>2018-08-02T18:01:02Z</time>
      </trkpt>
      <trkpt lat="62.314894741946" lon="17.44418564508">
        <ele>9</ele>
        <time>2018-08-02T18:01:08Z</time>
      </trkpt>
      <trkpt lat="62.314736659312" lon="17.444287736622">
        <ele>9</ele>
        <time>2018-08-02T18:01:12Z</time>
      </trkpt>
      <trkpt lat="62.314656193072" lon="17.44433316652">
        <ele>8.2</ele>
        <time>2018-08-02T18:01:14Z</time>
      </trkpt>
      <trkpt lat="62.31443843131" lon="17.444502732357">
        <ele>8.2</ele>
        <time>2018-08-02T18:01:20Z</time>
      </trkpt>
      <trkpt lat="62.314200133893" lon="17.444669196891">
        <ele>7.8</ele>
        <time>2018-08-02T18:01:26Z</time>
      </trkpt>
      <trkpt lat="62.313974576964" lon="17.444850748845">
        <ele>7.6</ele>
        <time>2018-08-02T18:01:32Z</time>
      </trkpt>
      <trkpt lat="62.313722533231" lon="17.44500707128">
        <ele>8</ele>
        <time>2018-08-02T18:01:38Z</time>
      </trkpt>
      <trkpt lat="62.313513404826" lon="17.445097260524">
        <ele>8</ele>
        <time>2018-08-02T18:01:44Z</time>
      </trkpt>
      <trkpt lat="62.313298576729" lon="17.445265988171">
        <ele>8.2</ele>
        <time>2018-08-02T18:01:50Z</time>
      </trkpt>
      <trkpt lat="62.313084335365" lon="17.445434380542">
        <ele>8.2</ele>
        <time>2018-08-02T18:01:56Z</time>
      </trkpt>
      <trkpt lat="62.312920636858" lon="17.445501016647">
        <ele>8</ele>
        <time>2018-08-02T18:02:02Z</time>
      </trkpt>
      <trkpt lat="62.312725506226" lon="17.445575615557">
        <ele>8</ele>
        <time>2018-08-02T18:02:08Z</time>
      </trkpt>
      <trkpt lat="62.312606734703" lon="17.445621296912">
        <ele>7</ele>
        <time>2018-08-02T18:02:11Z</time>
      </trkpt>
      <trkpt lat="62.31248209585" lon="17.445701427876">
        <ele>6</ele>
        <time>2018-08-02T18:02:14Z</time>
      </trkpt>
      <trkpt lat="62.312231141764" lon="17.44595506417">
        <ele>5.8</ele>
        <time>2018-08-02T18:02:20Z</time>
      </trkpt>
      <trkpt lat="62.312113795164" lon="17.446092192054">
        <ele>5.6</ele>
        <time>2018-08-02T18:02:23Z</time>
      </trkpt>
      <trkpt lat="62.311847334563" lon="17.446242228064">
        <ele>6</ele>
        <time>2018-08-02T18:02:29Z</time>
      </trkpt>
      <trkpt lat="62.311753122007" lon="17.446325963245">
        <ele>6</ele>
        <time>2018-08-02T18:02:31Z</time>
      </trkpt>
      <trkpt lat="62.311529828191" lon="17.446495193806">
        <ele>5.2</ele>
        <time>2018-08-02T18:02:37Z</time>
      </trkpt>
      <trkpt lat="62.311364034209" lon="17.446660903969">
        <ele>6.2</ele>
        <time>2018-08-02T18:02:43Z</time>
      </trkpt>
      <trkpt lat="62.311244759772" lon="17.446756038534">
        <ele>6.8</ele>
        <time>2018-08-02T18:02:49Z</time>
      </trkpt>
      <trkpt lat="62.311163203885" lon="17.446850670185">
        <ele>7</ele>
        <time>2018-08-02T18:02:53Z</time>
      </trkpt>
      <trkpt lat="62.311038145937" lon="17.44704135841">
        <ele>7.2</ele>
        <time>2018-08-02T18:02:59Z</time>
      </trkpt>
      <trkpt lat="62.310955919498" lon="17.4471679251">
        <ele>8.4</ele>
        <time>2018-08-02T18:03:04Z</time>
      </trkpt>
      <trkpt lat="62.310870424118" lon="17.447276386886">
        <ele>9.4</ele>
        <time>2018-08-02T18:03:10Z</time>
      </trkpt>
      <trkpt lat="62.310735559347" lon="17.447434972434">
        <ele>10</ele>
        <time>2018-08-02T18:03:16Z</time>
      </trkpt>
      <trkpt lat="62.310692308743" lon="17.447492807544">
        <ele>10.4</ele>
        <time>2018-08-02T18:03:18Z</time>
      </trkpt>
      <trkpt lat="62.310567921347" lon="17.447644603753">
        <ele>11.2</ele>
        <time>2018-08-02T18:03:24Z</time>
      </trkpt>
      <trkpt lat="62.310489382944" lon="17.447749545141">
        <ele>11.4</ele>
        <time>2018-08-02T18:03:28Z</time>
      </trkpt>
      <trkpt lat="62.310368935041" lon="17.447891618346">
        <ele>12.2</ele>
        <time>2018-08-02T18:03:34Z</time>
      </trkpt>
      <trkpt lat="62.310296850701" lon="17.447976107898">
        <ele>10.6</ele>
        <time>2018-08-02T18:03:38Z</time>
      </trkpt>
      <trkpt lat="62.31016701507" lon="17.448104099511">
        <ele>12</ele>
        <time>2018-08-02T18:03:44Z</time>
      </trkpt>
      <trkpt lat="62.310049417013" lon="17.448240473024">
        <ele>12</ele>
        <time>2018-08-02T18:03:50Z</time>
      </trkpt>
      <trkpt lat="62.309992168636" lon="17.448323286196">
        <ele>12.6</ele>
        <time>2018-08-02T18:03:54Z</time>
      </trkpt>
      <trkpt lat="62.309907259989" lon="17.448466113772">
        <ele>12.8</ele>
        <time>2018-08-02T18:04:00Z</time>
      </trkpt>
      <trkpt lat="62.309847161766" lon="17.448581448716">
        <ele>13.6</ele>
        <time>2018-08-02T18:04:04Z</time>
      </trkpt>
      <trkpt lat="62.309703244543" lon="17.448833995363">
        <ele>13.8</ele>
        <time>2018-08-02T18:04:10Z</time>
      </trkpt>
      <trkpt lat="62.309500486382" lon="17.449153345753">
        <ele>14.4</ele>
        <time>2018-08-02T18:04:16Z</time>
      </trkpt>
      <trkpt lat="62.309309043786" lon="17.449452747221">
        <ele>13.2</ele>
        <time>2018-08-02T18:04:22Z</time>
      </trkpt>
      <trkpt lat="62.309159678328" lon="17.449762458426">
        <ele>13</ele>
        <time>2018-08-02T18:04:28Z</time>
      </trkpt>
      <trkpt lat="62.309057922062" lon="17.45011164838">
        <ele>13.4</ele>
        <time>2018-08-02T18:04:34Z</time>
      </trkpt>
      <trkpt lat="62.309001595694" lon="17.450356735136">
        <ele>12.4</ele>
        <time>2018-08-02T18:04:37Z</time>
      </trkpt>
      <trkpt lat="62.308948370629" lon="17.450600396969">
        <ele>11</ele>
        <time>2018-08-02T18:04:40Z</time>
      </trkpt>
      <trkpt lat="62.308907550776" lon="17.450778093249">
        <ele>10</ele>
        <time>2018-08-02T18:04:42Z</time>
      </trkpt>
      <trkpt lat="62.308863461982" lon="17.45098252779">
        <ele>8.8</ele>
        <time>2018-08-02T18:04:44Z</time>
      </trkpt>
      <trkpt lat="62.308793976031" lon="17.451322665292">
        <ele>7.6</ele>
        <time>2018-08-02T18:04:47Z</time>
      </trkpt>
      <trkpt lat="62.308749216685" lon="17.451579905803">
        <ele>6.4</ele>
        <time>2018-08-02T18:04:49Z</time>
      </trkpt>
      <trkpt lat="62.30852416267" lon="17.452355985924">
        <ele>6</ele>
        <time>2018-08-02T18:04:55Z</time>
      </trkpt>
      <trkpt lat="62.308383849664" lon="17.452809949628">
        <ele>6.6</ele>
        <time>2018-08-02T18:05:01Z</time>
      </trkpt>
      <trkpt lat="62.308326936563" lon="17.45323306794">
        <ele>5</ele>
        <time>2018-08-02T18:05:05Z</time>
      </trkpt>
      <trkpt lat="62.30829198404" lon="17.45357002032">
        <ele>4</ele>
        <time>2018-08-02T18:05:08Z</time>
      </trkpt>
      <trkpt lat="62.308269855824" lon="17.453999508876">
        <ele>3.8</ele>
        <time>2018-08-02T18:05:14Z</time>
      </trkpt>
      <trkpt lat="62.308205482832" lon="17.454276279214">
        <ele>4.6</ele>
        <time>2018-08-02T18:05:20Z</time>
      </trkpt>
      <trkpt lat="62.308224593564" lon="17.454294719394">
        <ele>5</ele>
        <time>2018-08-02T18:05:22Z</time>
      </trkpt>
      <trkpt lat="62.308240100079" lon="17.454240907596">
        <ele>5.2</ele>
        <time>2018-08-02T18:05:25Z</time>
      </trkpt>
      <trkpt lat="62.308298605741" lon="17.45394804401">
        <ele>5.6</ele>
        <time>2018-08-02T18:05:31Z</time>
      </trkpt>
      <trkpt lat="62.308324170536" lon="17.453530960666">
        <ele>5.6</ele>
        <time>2018-08-02T18:05:37Z</time>
      </trkpt>
      <trkpt lat="62.308354345376" lon="17.453081858464">
        <ele>6</ele>
        <time>2018-08-02T18:05:43Z</time>
      </trkpt>
      <trkpt lat="62.308394159401" lon="17.452732249415">
        <ele>7</ele>
        <time>2018-08-02T18:05:49Z</time>
      </trkpt>
      <trkpt lat="62.308460124954" lon="17.452480876234">
        <ele>7.6</ele>
        <time>2018-08-02T18:05:55Z</time>
      </trkpt>
      <trkpt lat="62.308552409673" lon="17.452274597675">
        <ele>8</ele>
        <time>2018-08-02T18:06:00Z</time>
      </trkpt>
      <trkpt lat="62.308684676055" lon="17.451896490166">
        <ele>7.8</ele>
        <time>2018-08-02T18:06:06Z</time>
      </trkpt>
      <trkpt lat="62.308753407635" lon="17.451578983794">
        <ele>8.6</ele>
        <time>2018-08-02T18:06:12Z</time>
      </trkpt>
      <trkpt lat="62.308784672122" lon="17.451428361051">
        <ele>9</ele>
        <time>2018-08-02T18:06:15Z</time>
      </trkpt>
      <trkpt lat="62.308847201096" lon="17.451195511869">
        <ele>10</ele>
        <time>2018-08-02T18:06:21Z</time>
      </trkpt>
      <trkpt lat="62.308862623792" lon="17.451133653447">
        <ele>10.2</ele>
        <time>2018-08-02T18:06:23Z</time>
      </trkpt>
      <trkpt lat="62.308897324858" lon="17.450945060697">
        <ele>11.2</ele>
        <time>2018-08-02T18:06:29Z</time>
      </trkpt>
      <trkpt lat="62.308941748928" lon="17.45072268889">
        <ele>12</ele>
        <time>2018-08-02T18:06:35Z</time>
      </trkpt>
      <trkpt lat="62.308958093633" lon="17.450610958163">
        <ele>12.4</ele>
        <time>2018-08-02T18:06:38Z</time>
      </trkpt>
      <trkpt lat="62.3089910345" lon="17.450414402608">
        <ele>13.4</ele>
        <time>2018-08-02T18:06:43Z</time>
      </trkpt>
      <trkpt lat="62.309043672832" lon="17.450120617013">
        <ele>14</ele>
        <time>2018-08-02T18:06:49Z</time>
      </trkpt>
      <trkpt lat="62.309092958404" lon="17.449921127793">
        <ele>14.4</ele>
        <time>2018-08-02T18:06:53Z</time>
      </trkpt>
      <trkpt lat="62.309202509837" lon="17.4496154399">
        <ele>14.6</ele>
        <time>2018-08-02T18:06:59Z</time>
      </trkpt>
      <trkpt lat="62.309341817015" lon="17.4493472191">
        <ele>14.6</ele>
        <time>2018-08-02T18:07:05Z</time>
      </trkpt>
      <trkpt lat="62.309365537792" lon="17.449313272405">
        <ele>14.6</ele>
        <time>2018-08-02T18:07:06Z</time>
      </trkpt>
      <trkpt lat="62.30952831429" lon="17.449073466246">
        <ele>14.6</ele>
        <time>2018-08-02T18:07:12Z</time>
      </trkpt>
      <trkpt lat="62.309665945088" lon="17.448841455254">
        <ele>15.2</ele>
        <time>2018-08-02T18:07:18Z</time>
      </trkpt>
      <trkpt lat="62.309751356649" lon="17.448707344854">
        <ele>15.6</ele>
        <time>2018-08-02T18:07:22Z</time>
      </trkpt>
      <trkpt lat="62.309880018814" lon="17.448438956416">
        <ele>16.2</ele>
        <time>2018-08-02T18:07:28Z</time>
      </trkpt>
      <trkpt lat="62.310057379818" lon="17.448164952105">
        <ele>14.6</ele>
        <time>2018-08-02T18:07:34Z</time>
      </trkpt>
      <trkpt lat="62.310097864395" lon="17.44811340342">
        <ele>14.2</ele>
        <time>2018-08-02T18:07:35Z</time>
      </trkpt>
      <trkpt lat="62.310238596496" lon="17.447939562814">
        <ele>13</ele>
        <time>2018-08-02T18:07:38Z</time>
      </trkpt>
      <trkpt lat="62.310383854823" lon="17.447786090225">
        <ele>11.8</ele>
        <time>2018-08-02T18:07:41Z</time>
      </trkpt>
      <trkpt lat="62.310633216348" lon="17.447523569117">
        <ele>10.6</ele>
        <time>2018-08-02T18:07:46Z</time>
      </trkpt>
      <trkpt lat="62.310849217911" lon="17.447301532586">
        <ele>9.4</ele>
        <time>2018-08-02T18:07:50Z</time>
      </trkpt>
      <trkpt lat="62.311106877517" lon="17.44700950719">
        <ele>8.2</ele>
        <time>2018-08-02T18:07:54Z</time>
      </trkpt>
      <trkpt lat="62.311243083392" lon="17.446853771488">
        <ele>6.6</ele>
        <time>2018-08-02T18:07:56Z</time>
      </trkpt>
      <trkpt lat="62.311376690878" lon="17.446721840382">
        <ele>5.2</ele>
        <time>2018-08-02T18:07:58Z</time>
      </trkpt>
      <trkpt lat="62.311631333" lon="17.446464599871">
        <ele>4</ele>
        <time>2018-08-02T18:08:02Z</time>
      </trkpt>
      <trkpt lat="62.311960909308" lon="17.446123456541">
        <ele>4</ele>
        <time>2018-08-02T18:08:08Z</time>
      </trkpt>
      <trkpt lat="62.312007764129" lon="17.446092694968">
        <ele>4</ele>
        <time>2018-08-02T18:08:09Z</time>
      </trkpt>
      <trkpt lat="62.312172384645" lon="17.44593830037">
        <ele>5.6</ele>
        <time>2018-08-02T18:08:13Z</time>
      </trkpt>
      <trkpt lat="62.312315715135" lon="17.445773679854">
        <ele>6.6</ele>
        <time>2018-08-02T18:08:17Z</time>
      </trkpt>
      <trkpt lat="62.312496428899" lon="17.445645436784">
        <ele>7</ele>
        <time>2018-08-02T18:08:23Z</time>
      </trkpt>
      <trkpt lat="62.312690888979" lon="17.445530437116">
        <ele>6.8</ele>
        <time>2018-08-02T18:08:29Z</time>
      </trkpt>
      <trkpt lat="62.312784933897" lon="17.445477212051">
        <ele>7.6</ele>
        <time>2018-08-02T18:08:32Z</time>
      </trkpt>
      <trkpt lat="62.312962630177" lon="17.445321224892">
        <ele>8.2</ele>
        <time>2018-08-02T18:08:38Z</time>
      </trkpt>
      <trkpt lat="62.313176452446" lon="17.445136739273">
        <ele>8.4</ele>
        <time>2018-08-02T18:08:44Z</time>
      </trkpt>
      <trkpt lat="62.313246776587" lon="17.445099355999">
        <ele>8.6</ele>
        <time>2018-08-02T18:08:46Z</time>
      </trkpt>
      <trkpt lat="62.31346780729" lon="17.444993576421">
        <ele>8.4</ele>
        <time>2018-08-02T18:08:52Z</time>
      </trkpt>
      <trkpt lat="62.313680959007" lon="17.44488469554">
        <ele>8.4</ele>
        <time>2018-08-02T18:08:58Z</time>
      </trkpt>
      <trkpt lat="62.313898217855" lon="17.444793249011">
        <ele>8</ele>
        <time>2018-08-02T18:09:04Z</time>
      </trkpt>
      <trkpt lat="62.313978767914" lon="17.444736084453">
        <ele>8</ele>
        <time>2018-08-02T18:09:06Z</time>
      </trkpt>
      <trkpt lat="62.314113297409" lon="17.444644302648">
        <ele>7.6</ele>
        <time>2018-08-02T18:09:09Z</time>
      </trkpt>
      <trkpt lat="62.314353103568" lon="17.444485884738">
        <ele>7.8</ele>
        <time>2018-08-02T18:09:15Z</time>
      </trkpt>
      <trkpt lat="62.314550497313" lon="17.444366023568">
        <ele>8</ele>
        <time>2018-08-02T18:09:21Z</time>
      </trkpt>
      <trkpt lat="62.314751746732" lon="17.444255131031">
        <ele>8.2</ele>
        <time>2018-08-02T18:09:27Z</time>
      </trkpt>
      <trkpt lat="62.314944362794" lon="17.444076093647">
        <ele>8</ele>
        <time>2018-08-02T18:09:33Z</time>
      </trkpt>
      <trkpt lat="62.315124741282" lon="17.443877442617">
        <ele>8.4</ele>
        <time>2018-08-02T18:09:39Z</time>
      </trkpt>
      <trkpt lat="62.315154580846" lon="17.443845423759">
        <ele>8.6</ele>
        <time>2018-08-02T18:09:40Z</time>
      </trkpt>
      <trkpt lat="62.315311238557" lon="17.443640234847">
        <ele>9</ele>
        <time>2018-08-02T18:09:46Z</time>
      </trkpt>
      <trkpt lat="62.315444678405" lon="17.443399087584">
        <ele>9.4</ele>
        <time>2018-08-02T18:09:52Z</time>
      </trkpt>
      <trkpt lat="62.315489186294" lon="17.443322728475">
        <ele>9.6</ele>
        <time>2018-08-02T18:09:54Z</time>
      </trkpt>
      <trkpt lat="62.315628912567" lon="17.443042689196">
        <ele>9.8</ele>
        <time>2018-08-02T18:10:00Z</time>
      </trkpt>
      <trkpt lat="62.315769812306" lon="17.442769858351">
        <ele>10</ele>
        <time>2018-08-02T18:10:06Z</time>
      </trkpt>
      <trkpt lat="62.315901491955" lon="17.442467774675">
        <ele>10.6</ele>
        <time>2018-08-02T18:10:12Z</time>
      </trkpt>
      <trkpt lat="62.315968379517" lon="17.442260657926">
        <ele>10.8</ele>
        <time>2018-08-02T18:10:16Z</time>
      </trkpt>
      <trkpt lat="62.316062927349" lon="17.442009620021">
        <ele>11.2</ele>
        <time>2018-08-02T18:10:22Z</time>
      </trkpt>
      <trkpt lat="62.316145237607" lon="17.441733855511">
        <ele>11.6</ele>
        <time>2018-08-02T18:10:28Z</time>
      </trkpt>
      <trkpt lat="62.316160408846" lon="17.441690604907">
        <ele>11.8</ele>
        <time>2018-08-02T18:10:29Z</time>
      </trkpt>
      <trkpt lat="62.316218663051" lon="17.441542496734">
        <ele>12.8</ele>
        <time>2018-08-02T18:10:33Z</time>
      </trkpt>
      <trkpt lat="62.316309858123" lon="17.441336721089">
        <ele>13.2</ele>
        <time>2018-08-02T18:10:39Z</time>
      </trkpt>
      <trkpt lat="62.316351013252" lon="17.441247034759">
        <ele>14</ele>
        <time>2018-08-02T18:10:42Z</time>
      </trkpt>
      <trkpt lat="62.316437011546" lon="17.441141674276">
        <ele>14.6</ele>
        <time>2018-08-02T18:10:48Z</time>
      </trkpt>
      <trkpt lat="62.316466515834" lon="17.440993649922">
        <ele>14.6</ele>
        <time>2018-08-02T18:10:54Z</time>
      </trkpt>
      <trkpt lat="62.316544467504" lon="17.44083372327">
        <ele>15</ele>
        <time>2018-08-02T18:10:59Z</time>
      </trkpt>
      <trkpt lat="62.316666927063" lon="17.440652338954">
        <ele>15.8</ele>
        <time>2018-08-02T18:11:05Z</time>
      </trkpt>
      <trkpt lat="62.316773880107" lon="17.440416137012">
        <ele>16.2</ele>
        <time>2018-08-02T18:11:11Z</time>
      </trkpt>
      <trkpt lat="62.316897848408" lon="17.44021765362">
        <ele>16.6</ele>
        <time>2018-08-02T18:11:17Z</time>
      </trkpt>
      <trkpt lat="62.31702760022" lon="17.440000813867">
        <ele>17</ele>
        <time>2018-08-02T18:11:23Z</time>
      </trkpt>
      <trkpt lat="62.31709214085" lon="17.439893944642">
        <ele>17.2</ele>
        <time>2018-08-02T18:11:26Z</time>
      </trkpt>
      <trkpt lat="62.317239243195" lon="17.439713817611">
        <ele>17.6</ele>
        <time>2018-08-02T18:11:32Z</time>
      </trkpt>
      <trkpt lat="62.317368827369" lon="17.439538049168">
        <ele>18.2</ele>
        <time>2018-08-02T18:11:38Z</time>
      </trkpt>
      <trkpt lat="62.317388692472" lon="17.439516172409">
        <ele>19.4</ele>
        <time>2018-08-02T18:11:39Z</time>
      </trkpt>
      <trkpt lat="62.317515678257" lon="17.439329256039">
        <ele>19.6</ele>
        <time>2018-08-02T18:11:45Z</time>
      </trkpt>
      <trkpt lat="62.317669150846" lon="17.439129263905">
        <ele>20.2</ele>
        <time>2018-08-02T18:11:51Z</time>
      </trkpt>
      <trkpt lat="62.31777945665" lon="17.438872861584">
        <ele>20.4</ele>
        <time>2018-08-02T18:11:57Z</time>
      </trkpt>
      <trkpt lat="62.317795130803" lon="17.438834891577">
        <ele>20.4</ele>
        <time>2018-08-02T18:11:58Z</time>
      </trkpt>
    </trkseg>
  </trk>
</gpx>